sensor_id;sensor_type;location;lat;lon;timestamp;P1;durP1;ratioP1;P2;durP2;ratioP2
24873;SDS011;12945;42.648;23.370;2023-03-04T00:01:25;37.42;;;21.15;;
24873;SDS011;12945;42.648;23.370;2023-03-04T00:04:04;34.10;;;21.13;;
24873;SDS011;12945;42.648;23.370;2023-03-04T00:06:30;34.25;;;21.77;;
24873;SDS011;12945;42.648;23.370;2023-03-04T00:08:55;33.75;;;21.60;;
24873;SDS011;12945;42.648;23.370;2023-03-04T00:11:21;36.40;;;22.15;;
24873;SDS011;12945;42.648;23.370;2023-03-04T00:13:47;36.60;;;22.48;;
24873;SDS011;12945;42.648;23.370;2023-03-04T00:16:12;38.70;;;21.83;;
24873;SDS011;12945;42.648;23.370;2023-03-04T00:18:39;32.83;;;20.80;;
24873;SDS011;12945;42.648;23.370;2023-03-04T00:21:05;33.67;;;21.02;;
24873;SDS011;12945;42.648;23.370;2023-03-04T00:23:31;30.90;;;20.58;;
24873;SDS011;12945;42.648;23.370;2023-03-04T00:25:56;31.40;;;20.15;;
24873;SDS011;12945;42.648;23.370;2023-03-04T00:28:27;29.40;;;19.02;;
24873;SDS011;12945;42.648;23.370;2023-03-04T00:30:52;37.00;;;20.00;;
24873;SDS011;12945;42.648;23.370;2023-03-04T00:35:54;30.50;;;18.80;;
24873;SDS011;12945;42.648;23.370;2023-03-04T00:38:29;25.63;;;16.40;;
24873;SDS011;12945;42.648;23.370;2023-03-04T00:40:54;26.10;;;17.23;;
24873;SDS011;12945;42.648;23.370;2023-03-04T00:45:50;28.95;;;17.25;;
24873;SDS011;12945;42.648;23.370;2023-03-04T00:48:15;31.17;;;18.10;;
24873;SDS011;12945;42.648;23.370;2023-03-04T00:50:41;27.98;;;17.40;;
24873;SDS011;12945;42.648;23.370;2023-03-04T00:53:06;28.52;;;17.20;;
24873;SDS011;12945;42.648;23.370;2023-03-04T00:55:43;26.80;;;16.95;;
24873;SDS011;12945;42.648;23.370;2023-03-04T00:58:08;26.35;;;17.13;;
24873;SDS011;12945;42.648;23.370;2023-03-04T01:00:33;26.90;;;17.17;;
24873;SDS011;12945;42.648;23.370;2023-03-04T01:02:59;29.40;;;17.05;;
24873;SDS011;12945;42.648;23.370;2023-03-04T01:05:26;28.38;;;17.20;;
24873;SDS011;12945;42.648;23.370;2023-03-04T01:07:51;26.77;;;16.92;;
24873;SDS011;12945;42.648;23.370;2023-03-04T01:13:14;27.08;;;17.27;;
24873;SDS011;12945;42.648;23.370;2023-03-04T01:15:40;29.77;;;17.15;;
24873;SDS011;12945;42.648;23.370;2023-03-04T01:18:05;30.40;;;16.95;;
24873;SDS011;12945;42.648;23.370;2023-03-04T01:20:34;30.42;;;18.50;;
24873;SDS011;12945;42.648;23.370;2023-03-04T01:23:00;27.08;;;17.35;;
24873;SDS011;12945;42.648;23.370;2023-03-04T01:27:57;27.90;;;17.85;;
24873;SDS011;12945;42.648;23.370;2023-03-04T01:30:34;29.65;;;18.58;;
24873;SDS011;12945;42.648;23.370;2023-03-04T01:33:00;27.13;;;17.23;;
24873;SDS011;12945;42.648;23.370;2023-03-04T01:37:53;28.27;;;17.45;;
24873;SDS011;12945;42.648;23.370;2023-03-04T01:40:19;26.55;;;16.63;;
24873;SDS011;12945;42.648;23.370;2023-03-04T01:42:45;27.67;;;17.98;;
24873;SDS011;12945;42.648;23.370;2023-03-04T01:45:16;29.63;;;17.05;;
24873;SDS011;12945;42.648;23.370;2023-03-04T01:47:43;27.60;;;16.90;;
24873;SDS011;12945;42.648;23.370;2023-03-04T01:50:16;25.63;;;16.27;;
24873;SDS011;12945;42.648;23.370;2023-03-04T01:52:44;25.50;;;16.83;;
24873;SDS011;12945;42.648;23.370;2023-03-04T01:55:15;26.63;;;16.40;;
24873;SDS011;12945;42.648;23.370;2023-03-04T01:57:40;25.73;;;16.10;;
24873;SDS011;12945;42.648;23.370;2023-03-04T02:00:10;26.88;;;16.90;;
24873;SDS011;12945;42.648;23.370;2023-03-04T02:02:35;25.07;;;16.47;;
24873;SDS011;12945;42.648;23.370;2023-03-04T02:07:51;29.02;;;17.10;;
24873;SDS011;12945;42.648;23.370;2023-03-04T02:10:19;30.45;;;16.85;;
24873;SDS011;12945;42.648;23.370;2023-03-04T02:12:44;30.42;;;16.60;;
24873;SDS011;12945;42.648;23.370;2023-03-04T02:18:27;30.88;;;17.98;;
24873;SDS011;12945;42.648;23.370;2023-03-04T02:26:32;28.95;;;17.30;;
24873;SDS011;12945;42.648;23.370;2023-03-04T02:32:01;28.58;;;17.33;;
24873;SDS011;12945;42.648;23.370;2023-03-04T02:34:35;31.50;;;18.35;;
24873;SDS011;12945;42.648;23.370;2023-03-04T02:37:01;28.05;;;17.05;;
24873;SDS011;12945;42.648;23.370;2023-03-04T02:41:54;27.35;;;17.50;;
24873;SDS011;12945;42.648;23.370;2023-03-04T02:44:22;27.13;;;18.00;;
24873;SDS011;12945;42.648;23.370;2023-03-04T02:46:48;28.40;;;16.98;;
24873;SDS011;12945;42.648;23.370;2023-03-04T02:49:15;27.75;;;16.08;;
24873;SDS011;12945;42.648;23.370;2023-03-04T02:51:41;30.77;;;18.73;;
24873;SDS011;12945;42.648;23.370;2023-03-04T02:56:52;26.73;;;17.60;;
24873;SDS011;12945;42.648;23.370;2023-03-04T03:02:21;29.35;;;17.20;;
24873;SDS011;12945;42.648;23.370;2023-03-04T03:05:01;26.70;;;16.85;;
24873;SDS011;12945;42.648;23.370;2023-03-04T03:07:26;22.70;;;13.13;;
24873;SDS011;12945;42.648;23.370;2023-03-04T03:09:52;30.50;;;16.40;;
24873;SDS011;12945;42.648;23.370;2023-03-04T03:12:17;28.65;;;16.48;;
24873;SDS011;12945;42.648;23.370;2023-03-04T03:17:35;26.08;;;16.30;;
24873;SDS011;12945;42.648;23.370;2023-03-04T03:20:00;28.27;;;16.50;;
24873;SDS011;12945;42.648;23.370;2023-03-04T03:22:25;27.85;;;16.05;;
24873;SDS011;12945;42.648;23.370;2023-03-04T03:24:52;33.50;;;17.17;;
24873;SDS011;12945;42.648;23.370;2023-03-04T03:27:17;24.42;;;16.05;;
24873;SDS011;12945;42.648;23.370;2023-03-04T03:32:13;29.05;;;17.23;;
24873;SDS011;12945;42.648;23.370;2023-03-04T03:34:40;31.02;;;16.45;;
24873;SDS011;12945;42.648;23.370;2023-03-04T03:37:05;26.20;;;16.38;;
24873;SDS011;12945;42.648;23.370;2023-03-04T03:39:32;30.35;;;16.77;;
24873;SDS011;12945;42.648;23.370;2023-03-04T03:41:58;27.70;;;16.92;;
24873;SDS011;12945;42.648;23.370;2023-03-04T03:44:33;29.05;;;17.08;;
24873;SDS011;12945;42.648;23.370;2023-03-04T03:46:58;27.90;;;17.10;;
24873;SDS011;12945;42.648;23.370;2023-03-04T03:49:25;27.80;;;17.40;;
24873;SDS011;12945;42.648;23.370;2023-03-04T03:51:50;27.95;;;18.45;;
24873;SDS011;12945;42.648;23.370;2023-03-04T03:54:16;34.85;;;19.27;;
24873;SDS011;12945;42.648;23.370;2023-03-04T03:59:17;44.00;;;25.52;;
24873;SDS011;12945;42.648;23.370;2023-03-04T04:01:42;48.08;;;24.90;;
24873;SDS011;12945;42.648;23.370;2023-03-04T04:04:08;40.65;;;23.85;;
24873;SDS011;12945;42.648;23.370;2023-03-04T04:06:34;36.30;;;22.25;;
24873;SDS011;12945;42.648;23.370;2023-03-04T04:08:59;40.47;;;23.95;;
24873;SDS011;12945;42.648;23.370;2023-03-04T04:14:27;33.13;;;20.08;;
24873;SDS011;12945;42.648;23.370;2023-03-04T04:16:53;33.75;;;19.13;;
24873;SDS011;12945;42.648;23.370;2023-03-04T04:19:18;36.75;;;19.77;;
24873;SDS011;12945;42.648;23.370;2023-03-04T04:21:44;32.95;;;19.08;;
24873;SDS011;12945;42.648;23.370;2023-03-04T04:24:09;31.65;;;19.23;;
24873;SDS011;12945;42.648;23.370;2023-03-04T04:26:35;32.67;;;19.90;;
24873;SDS011;12945;42.648;23.370;2023-03-04T04:29:00;30.48;;;19.05;;
24873;SDS011;12945;42.648;23.370;2023-03-04T04:31:34;36.90;;;19.00;;
24873;SDS011;12945;42.648;23.370;2023-03-04T04:33:59;31.33;;;19.65;;
24873;SDS011;12945;42.648;23.370;2023-03-04T04:36:39;29.90;;;19.13;;
24873;SDS011;12945;42.648;23.370;2023-03-04T04:39:05;32.78;;;19.15;;
24873;SDS011;12945;42.648;23.370;2023-03-04T04:41:43;31.42;;;18.77;;
24873;SDS011;12945;42.648;23.370;2023-03-04T04:44:09;37.42;;;19.58;;
24873;SDS011;12945;42.648;23.370;2023-03-04T04:46:37;33.05;;;20.38;;
24873;SDS011;12945;42.648;23.370;2023-03-04T04:49:03;37.20;;;20.15;;
24873;SDS011;12945;42.648;23.370;2023-03-04T04:53:57;37.45;;;20.95;;
24873;SDS011;12945;42.648;23.370;2023-03-04T04:56:23;37.30;;;22.88;;
24873;SDS011;12945;42.648;23.370;2023-03-04T04:58:50;35.85;;;21.33;;
24873;SDS011;12945;42.648;23.370;2023-03-04T05:01:16;33.55;;;20.15;;
24873;SDS011;12945;42.648;23.370;2023-03-04T05:03:41;37.78;;;20.67;;
24873;SDS011;12945;42.648;23.370;2023-03-04T05:09:10;32.45;;;19.00;;
24873;SDS011;12945;42.648;23.370;2023-03-04T05:14:39;31.58;;;19.27;;
24873;SDS011;12945;42.648;23.370;2023-03-04T05:17:07;32.75;;;20.08;;
24873;SDS011;12945;42.648;23.370;2023-03-04T05:19:32;32.33;;;19.20;;
24873;SDS011;12945;42.648;23.370;2023-03-04T05:22:04;30.60;;;19.05;;
24873;SDS011;12945;42.648;23.370;2023-03-04T05:24:30;33.00;;;18.50;;
24873;SDS011;12945;42.648;23.370;2023-03-04T05:26:57;35.58;;;19.08;;
24873;SDS011;12945;42.648;23.370;2023-03-04T05:29:22;33.67;;;18.38;;
24873;SDS011;12945;42.648;23.370;2023-03-04T05:31:52;30.88;;;18.70;;
24873;SDS011;12945;42.648;23.370;2023-03-04T05:34:18;31.67;;;16.95;;
24873;SDS011;12945;42.648;23.370;2023-03-04T05:36:46;27.58;;;16.88;;
24873;SDS011;12945;42.648;23.370;2023-03-04T05:39:11;28.55;;;16.95;;
24873;SDS011;12945;42.648;23.370;2023-03-04T05:41:40;29.83;;;16.85;;
24873;SDS011;12945;42.648;23.370;2023-03-04T05:44:06;31.52;;;17.05;;
24873;SDS011;12945;42.648;23.370;2023-03-04T05:46:32;32.08;;;18.27;;
24873;SDS011;12945;42.648;23.370;2023-03-04T05:48:57;27.70;;;15.07;;
24873;SDS011;12945;42.648;23.370;2023-03-04T05:51:24;24.67;;;14.63;;
24873;SDS011;12945;42.648;23.370;2023-03-04T05:53:49;28.67;;;16.58;;
24873;SDS011;12945;42.648;23.370;2023-03-04T05:56:18;25.77;;;15.95;;
24873;SDS011;12945;42.648;23.370;2023-03-04T05:58:43;29.42;;;15.23;;
24873;SDS011;12945;42.648;23.370;2023-03-04T06:01:11;28.60;;;14.27;;
24873;SDS011;12945;42.648;23.370;2023-03-04T06:03:36;22.85;;;14.15;;
24873;SDS011;12945;42.648;23.370;2023-03-04T06:06:10;23.23;;;14.02;;
24873;SDS011;12945;42.648;23.370;2023-03-04T06:08:35;21.92;;;13.43;;
24873;SDS011;12945;42.648;23.370;2023-03-04T06:11:01;23.33;;;13.77;;
24873;SDS011;12945;42.648;23.370;2023-03-04T06:13:28;28.38;;;13.85;;
24873;SDS011;12945;42.648;23.370;2023-03-04T06:15:55;21.35;;;12.38;;
24873;SDS011;12945;42.648;23.370;2023-03-04T06:18:20;27.50;;;14.80;;
24873;SDS011;12945;42.648;23.370;2023-03-04T06:20:48;26.90;;;15.00;;
24873;SDS011;12945;42.648;23.370;2023-03-04T06:23:13;23.73;;;13.00;;
24873;SDS011;12945;42.648;23.370;2023-03-04T06:25:42;22.80;;;13.77;;
24873;SDS011;12945;42.648;23.370;2023-03-04T06:28:07;26.55;;;14.68;;
24873;SDS011;12945;42.648;23.370;2023-03-04T06:30:33;22.30;;;13.50;;
24873;SDS011;12945;42.648;23.370;2023-03-04T06:32:58;22.85;;;14.57;;
24873;SDS011;12945;42.648;23.370;2023-03-04T06:35:24;30.95;;;15.25;;
24873;SDS011;12945;42.648;23.370;2023-03-04T06:37:50;28.48;;;15.68;;
24873;SDS011;12945;42.648;23.370;2023-03-04T06:40:22;28.17;;;16.02;;
24873;SDS011;12945;42.648;23.370;2023-03-04T06:42:48;35.33;;;17.27;;
24873;SDS011;12945;42.648;23.370;2023-03-04T06:45:16;39.22;;;21.08;;
24873;SDS011;12945;42.648;23.370;2023-03-04T06:47:41;40.40;;;20.85;;
24873;SDS011;12945;42.648;23.370;2023-03-04T06:50:09;26.42;;;15.70;;
24873;SDS011;12945;42.648;23.370;2023-03-04T06:52:36;28.00;;;15.35;;
24873;SDS011;12945;42.648;23.370;2023-03-04T06:55:01;22.95;;;14.57;;
24873;SDS011;12945;42.648;23.370;2023-03-04T06:57:26;27.85;;;16.83;;
24873;SDS011;12945;42.648;23.370;2023-03-04T06:59:52;25.38;;;15.23;;
24873;SDS011;12945;42.648;23.370;2023-03-04T07:02:17;28.50;;;15.70;;
24873;SDS011;12945;42.648;23.370;2023-03-04T07:04:42;24.50;;;15.38;;
24873;SDS011;12945;42.648;23.370;2023-03-04T07:07:09;25.33;;;15.80;;
24873;SDS011;12945;42.648;23.370;2023-03-04T07:09:34;26.35;;;15.70;;
24873;SDS011;12945;42.648;23.370;2023-03-04T07:12:06;22.35;;;14.57;;
24873;SDS011;12945;42.648;23.370;2023-03-04T07:14:31;28.27;;;15.20;;
24873;SDS011;12945;42.648;23.370;2023-03-04T07:17:00;27.70;;;16.48;;
24873;SDS011;12945;42.648;23.370;2023-03-04T07:19:25;33.90;;;19.35;;
24873;SDS011;12945;42.648;23.370;2023-03-04T07:21:53;31.63;;;18.85;;
24873;SDS011;12945;42.648;23.370;2023-03-04T07:24:18;32.85;;;18.63;;
24873;SDS011;12945;42.648;23.370;2023-03-04T07:26:53;33.42;;;19.63;;
24873;SDS011;12945;42.648;23.370;2023-03-04T07:29:18;43.65;;;19.42;;
24873;SDS011;12945;42.648;23.370;2023-03-04T07:31:44;35.28;;;19.35;;
24873;SDS011;12945;42.648;23.370;2023-03-04T07:34:11;29.45;;;18.55;;
24873;SDS011;12945;42.648;23.370;2023-03-04T07:36:54;32.30;;;19.05;;
24873;SDS011;12945;42.648;23.370;2023-03-04T07:39:19;34.38;;;19.35;;
24873;SDS011;12945;42.648;23.370;2023-03-04T07:44:29;36.20;;;20.33;;
24873;SDS011;12945;42.648;23.370;2023-03-04T07:46:55;37.00;;;19.55;;
24873;SDS011;12945;42.648;23.370;2023-03-04T07:49:21;35.60;;;20.60;;
24873;SDS011;12945;42.648;23.370;2023-03-04T07:51:54;36.80;;;20.08;;
24873;SDS011;12945;42.648;23.370;2023-03-04T07:54:20;39.72;;;22.55;;
24873;SDS011;12945;42.648;23.370;2023-03-04T07:59:15;35.08;;;21.67;;
24873;SDS011;12945;42.648;23.370;2023-03-04T08:01:40;37.08;;;20.45;;
24873;SDS011;12945;42.648;23.370;2023-03-04T08:04:06;39.78;;;20.88;;
24873;SDS011;12945;42.648;23.370;2023-03-04T08:06:41;31.75;;;19.75;;
24873;SDS011;12945;42.648;23.370;2023-03-04T08:09:07;33.42;;;20.42;;
24873;SDS011;12945;42.648;23.370;2023-03-04T08:11:35;36.50;;;21.13;;
24873;SDS011;12945;42.648;23.370;2023-03-04T08:14:00;38.78;;;21.52;;
24873;SDS011;12945;42.648;23.370;2023-03-04T08:16:27;37.25;;;21.27;;
24873;SDS011;12945;42.648;23.370;2023-03-04T08:18:57;37.78;;;19.90;;
24873;SDS011;12945;42.648;23.370;2023-03-04T08:23:51;37.85;;;20.02;;
24873;SDS011;12945;42.648;23.370;2023-03-04T08:26:21;32.75;;;19.80;;
24873;SDS011;12945;42.648;23.370;2023-03-04T08:28:48;40.80;;;18.88;;
24873;SDS011;12945;42.648;23.370;2023-03-04T08:33:42;34.65;;;19.63;;
24873;SDS011;12945;42.648;23.370;2023-03-04T08:36:08;34.88;;;20.60;;
24873;SDS011;12945;42.648;23.370;2023-03-04T08:38:33;32.97;;;19.85;;
24873;SDS011;12945;42.648;23.370;2023-03-04T08:40:59;34.55;;;18.65;;
24873;SDS011;12945;42.648;23.370;2023-03-04T08:43:28;32.47;;;18.50;;
24873;SDS011;12945;42.648;23.370;2023-03-04T08:45:58;35.53;;;18.75;;
24873;SDS011;12945;42.648;23.370;2023-03-04T08:48:24;31.35;;;18.13;;
24873;SDS011;12945;42.648;23.370;2023-03-04T08:50:49;39.47;;;17.77;;
24873;SDS011;12945;42.648;23.370;2023-03-04T08:53:16;33.55;;;19.40;;
24873;SDS011;12945;42.648;23.370;2023-03-04T08:55:41;39.63;;;19.00;;
24873;SDS011;12945;42.648;23.370;2023-03-04T09:00:36;34.85;;;20.80;;
24873;SDS011;12945;42.648;23.370;2023-03-04T09:03:01;35.38;;;19.60;;
24873;SDS011;12945;42.648;23.370;2023-03-04T09:05:28;36.20;;;21.02;;
24873;SDS011;12945;42.648;23.370;2023-03-04T09:10:28;47.85;;;25.38;;
24873;SDS011;12945;42.648;23.370;2023-03-04T09:12:58;40.75;;;25.20;;
24873;SDS011;12945;42.648;23.370;2023-03-04T09:15:25;47.90;;;26.73;;
24873;SDS011;12945;42.648;23.370;2023-03-04T09:17:51;41.42;;;24.75;;
24873;SDS011;12945;42.648;23.370;2023-03-04T09:20:16;40.78;;;25.30;;
24873;SDS011;12945;42.648;23.370;2023-03-04T09:22:42;46.58;;;26.02;;
24873;SDS011;12945;42.648;23.370;2023-03-04T09:25:07;43.38;;;25.67;;
24873;SDS011;12945;42.648;23.370;2023-03-04T09:27:33;40.20;;;23.50;;
24873;SDS011;12945;42.648;23.370;2023-03-04T09:29:58;38.63;;;24.25;;
24873;SDS011;12945;42.648;23.370;2023-03-04T09:32:36;44.92;;;25.85;;
24873;SDS011;12945;42.648;23.370;2023-03-04T09:35:02;41.75;;;22.20;;
24873;SDS011;12945;42.648;23.370;2023-03-04T09:37:27;38.63;;;24.23;;
24873;SDS011;12945;42.648;23.370;2023-03-04T09:39:53;38.28;;;21.75;;
24873;SDS011;12945;42.648;23.370;2023-03-04T09:42:42;35.38;;;21.77;;
24873;SDS011;12945;42.648;23.370;2023-03-04T09:45:10;40.03;;;22.85;;
24873;SDS011;12945;42.648;23.370;2023-03-04T09:47:38;40.67;;;22.42;;
24873;SDS011;12945;42.648;23.370;2023-03-04T09:50:08;35.72;;;20.85;;
24873;SDS011;12945;42.648;23.370;2023-03-04T09:58:52;33.00;;;21.02;;
24873;SDS011;12945;42.648;23.370;2023-03-04T10:00:45;34.80;;;19.63;;
24873;SDS011;12945;42.648;23.370;2023-03-04T10:08:25;39.38;;;20.00;;
24873;SDS011;12945;42.648;23.370;2023-03-04T10:10:55;30.77;;;18.98;;
24873;SDS011;12945;42.648;23.370;2023-03-04T10:13:30;42.45;;;20.83;;
24873;SDS011;12945;42.648;23.370;2023-03-04T10:15:56;37.55;;;20.42;;
24873;SDS011;12945;42.648;23.370;2023-03-04T10:18:26;34.58;;;19.90;;
24873;SDS011;12945;42.648;23.370;2023-03-04T10:20:55;39.17;;;19.95;;
24873;SDS011;12945;42.648;23.370;2023-03-04T10:23:24;39.17;;;20.13;;
24873;SDS011;12945;42.648;23.370;2023-03-04T10:25:49;33.83;;;19.25;;
24873;SDS011;12945;42.648;23.370;2023-03-04T10:28:20;39.10;;;20.25;;
24873;SDS011;12945;42.648;23.370;2023-03-04T10:33:13;36.35;;;20.02;;
24873;SDS011;12945;42.648;23.370;2023-03-04T10:35:39;32.85;;;19.73;;
24873;SDS011;12945;42.648;23.370;2023-03-04T10:38:05;39.28;;;23.42;;
24873;SDS011;12945;42.648;23.370;2023-03-04T10:40:36;37.35;;;22.60;;
24873;SDS011;12945;42.648;23.370;2023-03-04T10:43:03;37.20;;;23.45;;
24873;SDS011;12945;42.648;23.370;2023-03-04T10:45:32;38.38;;;23.23;;
24873;SDS011;12945;42.648;23.370;2023-03-04T10:48:16;41.60;;;22.35;;
24873;SDS011;12945;42.648;23.370;2023-03-04T10:50:41;24.77;;;16.63;;
24873;SDS011;12945;42.648;23.370;2023-03-04T10:53:17;38.28;;;22.70;;
24873;SDS011;12945;42.648;23.370;2023-03-04T10:55:45;38.95;;;22.40;;
24873;SDS011;12945;42.648;23.370;2023-03-04T11:00:38;37.35;;;21.35;;
24873;SDS011;12945;42.648;23.370;2023-03-04T11:05:49;41.42;;;21.15;;
24873;SDS011;12945;42.648;23.370;2023-03-04T11:08:22;37.35;;;22.48;;
24873;SDS011;12945;42.648;23.370;2023-03-04T11:10:48;36.65;;;21.63;;
24873;SDS011;12945;42.648;23.370;2023-03-04T11:13:23;35.00;;;21.67;;
24873;SDS011;12945;42.648;23.370;2023-03-04T11:18:14;35.83;;;21.05;;
24873;SDS011;12945;42.648;23.370;2023-03-04T11:20:40;35.63;;;20.58;;
24873;SDS011;12945;42.648;23.370;2023-03-04T11:25:37;37.65;;;21.40;;
24873;SDS011;12945;42.648;23.370;2023-03-04T11:30:59;41.15;;;20.55;;
24873;SDS011;12945;42.648;23.370;2023-03-04T11:39:13;35.10;;;21.65;;
24873;SDS011;12945;42.648;23.370;2023-03-04T11:41:42;37.53;;;21.10;;
24873;SDS011;12945;42.648;23.370;2023-03-04T11:44:10;38.40;;;21.63;;
24873;SDS011;12945;42.648;23.370;2023-03-04T11:47:18;34.33;;;21.23;;
24873;SDS011;12945;42.648;23.370;2023-03-04T12:00:06;42.50;;;21.20;;
24873;SDS011;12945;42.648;23.370;2023-03-04T12:08:02;42.92;;;20.75;;
24873;SDS011;12945;42.648;23.370;2023-03-04T12:13:24;39.00;;;20.48;;
24873;SDS011;12945;42.648;23.370;2023-03-04T12:21:25;41.95;;;21.67;;
24873;SDS011;12945;42.648;23.370;2023-03-04T12:29:19;41.40;;;22.20;;
24873;SDS011;12945;42.648;23.370;2023-03-04T12:31:53;44.42;;;22.55;;
24873;SDS011;12945;42.648;23.370;2023-03-04T12:55:17;36.38;;;20.90;;
24873;SDS011;12945;42.648;23.370;2023-03-04T12:57:44;42.78;;;21.80;;
24873;SDS011;12945;42.648;23.370;2023-03-04T13:10:40;36.15;;;20.50;;
24873;SDS011;12945;42.648;23.370;2023-03-04T13:16:01;38.42;;;20.35;;
24873;SDS011;12945;42.648;23.370;2023-03-04T13:21:23;38.05;;;21.25;;
24873;SDS011;12945;42.648;23.370;2023-03-04T13:23:51;38.00;;;20.60;;
24873;SDS011;12945;42.648;23.370;2023-03-04T13:26:34;33.67;;;20.52;;
24873;SDS011;12945;42.648;23.370;2023-03-04T13:32:04;32.92;;;21.20;;
24873;SDS011;12945;42.648;23.370;2023-03-04T13:37:33;38.10;;;21.92;;
24873;SDS011;12945;42.648;23.370;2023-03-04T13:42:55;41.38;;;21.70;;
24873;SDS011;12945;42.648;23.370;2023-03-04T13:45:42;33.67;;;21.27;;
24873;SDS011;12945;42.648;23.370;2023-03-04T13:48:20;35.97;;;21.80;;
24873;SDS011;12945;42.648;23.370;2023-03-04T13:50:47;41.22;;;21.55;;
24873;SDS011;12945;42.648;23.370;2023-03-04T13:53:36;38.75;;;21.33;;
24873;SDS011;12945;42.648;23.370;2023-03-04T13:58:45;41.67;;;22.23;;
24873;SDS011;12945;42.648;23.370;2023-03-04T14:01:19;38.85;;;20.73;;
24873;SDS011;12945;42.648;23.370;2023-03-04T14:03:48;39.03;;;21.65;;
24873;SDS011;12945;42.648;23.370;2023-03-04T14:06:15;37.72;;;21.15;;
24873;SDS011;12945;42.648;23.370;2023-03-04T14:08:43;35.85;;;20.55;;
24873;SDS011;12945;42.648;23.370;2023-03-04T14:11:13;38.05;;;21.17;;
24873;SDS011;12945;42.648;23.370;2023-03-04T14:13:39;37.20;;;21.13;;
24873;SDS011;12945;42.648;23.370;2023-03-04T14:16:05;37.45;;;21.52;;
24873;SDS011;12945;42.648;23.370;2023-03-04T14:18:30;34.35;;;21.35;;
24873;SDS011;12945;42.648;23.370;2023-03-04T14:20:56;37.85;;;20.63;;
24873;SDS011;12945;42.648;23.370;2023-03-04T14:23:27;37.28;;;20.75;;
24873;SDS011;12945;42.648;23.370;2023-03-04T14:26:02;41.38;;;21.30;;
24873;SDS011;12945;42.648;23.370;2023-03-04T14:28:28;33.85;;;21.05;;
24873;SDS011;12945;42.648;23.370;2023-03-04T14:30:55;40.45;;;20.92;;
24873;SDS011;12945;42.648;23.370;2023-03-04T14:33:22;36.92;;;21.55;;
24873;SDS011;12945;42.648;23.370;2023-03-04T14:35:49;37.13;;;22.30;;
24873;SDS011;12945;42.648;23.370;2023-03-04T14:40:44;37.15;;;20.90;;
24873;SDS011;12945;42.648;23.370;2023-03-04T14:43:12;37.28;;;20.42;;
24873;SDS011;12945;42.648;23.370;2023-03-04T14:45:40;36.00;;;20.98;;
24873;SDS011;12945;42.648;23.370;2023-03-04T14:48:06;33.53;;;22.75;;
24873;SDS011;12945;42.648;23.370;2023-03-04T14:50:33;35.63;;;22.23;;
24873;SDS011;12945;42.648;23.370;2023-03-04T14:55:34;38.33;;;21.25;;
24873;SDS011;12945;42.648;23.370;2023-03-04T14:58:15;41.60;;;23.25;;
24873;SDS011;12945;42.648;23.370;2023-03-04T15:00:43;36.50;;;21.00;;
24873;SDS011;12945;42.648;23.370;2023-03-04T15:05:41;38.90;;;21.85;;
24873;SDS011;12945;42.648;23.370;2023-03-04T15:13:12;38.00;;;21.73;;
24873;SDS011;12945;42.648;23.370;2023-03-04T15:15:42;38.42;;;24.10;;
24873;SDS011;12945;42.648;23.370;2023-03-04T15:18:13;37.30;;;22.40;;
24873;SDS011;12945;42.648;23.370;2023-03-04T15:20:39;44.60;;;23.38;;
24873;SDS011;12945;42.648;23.370;2023-03-04T15:23:05;38.08;;;22.10;;
24873;SDS011;12945;42.648;23.370;2023-03-04T15:25:38;38.85;;;21.38;;
24873;SDS011;12945;42.648;23.370;2023-03-04T15:28:05;36.53;;;21.58;;
24873;SDS011;12945;42.648;23.370;2023-03-04T15:30:40;38.45;;;22.40;;
24873;SDS011;12945;42.648;23.370;2023-03-04T15:33:08;32.67;;;21.48;;
24873;SDS011;12945;42.648;23.370;2023-03-04T15:38:04;38.92;;;21.95;;
24873;SDS011;12945;42.648;23.370;2023-03-04T15:40:32;33.35;;;21.45;;
24873;SDS011;12945;42.648;23.370;2023-03-04T15:42:59;42.25;;;21.38;;
24873;SDS011;12945;42.648;23.370;2023-03-04T15:45:28;35.63;;;22.23;;
24873;SDS011;12945;42.648;23.370;2023-03-04T15:47:53;43.40;;;23.05;;
24873;SDS011;12945;42.648;23.370;2023-03-04T15:50:19;41.28;;;22.80;;
24873;SDS011;12945;42.648;23.370;2023-03-04T15:52:45;37.72;;;21.25;;
24873;SDS011;12945;42.648;23.370;2023-03-04T15:55:29;37.42;;;22.58;;
24873;SDS011;12945;42.648;23.370;2023-03-04T15:57:56;39.75;;;23.40;;
24873;SDS011;12945;42.648;23.370;2023-03-04T16:05:54;37.88;;;21.58;;
24873;SDS011;12945;42.648;23.370;2023-03-04T16:11:25;37.55;;;23.35;;
24873;SDS011;12945;42.648;23.370;2023-03-04T16:13:52;40.60;;;22.25;;
24873;SDS011;12945;42.648;23.370;2023-03-04T16:19:21;38.13;;;22.13;;
24873;SDS011;12945;42.648;23.370;2023-03-04T16:24:50;39.50;;;22.42;;
24873;SDS011;12945;42.648;23.370;2023-03-04T16:27:19;35.17;;;21.60;;
24873;SDS011;12945;42.648;23.370;2023-03-04T16:32:49;42.33;;;23.85;;
24873;SDS011;12945;42.648;23.370;2023-03-04T16:38:36;41.33;;;23.48;;
24873;SDS011;12945;42.648;23.370;2023-03-04T16:44:05;38.25;;;23.73;;
24873;SDS011;12945;42.648;23.370;2023-03-04T16:49:37;40.65;;;23.77;;
24873;SDS011;12945;42.648;23.370;2023-03-04T16:55:08;43.17;;;25.35;;
24873;SDS011;12945;42.648;23.370;2023-03-04T16:57:35;43.20;;;25.25;;
24873;SDS011;12945;42.648;23.370;2023-03-04T17:03:04;44.00;;;24.77;;
24873;SDS011;12945;42.648;23.370;2023-03-04T17:08:32;42.22;;;22.50;;
24873;SDS011;12945;42.648;23.370;2023-03-04T17:14:01;42.75;;;23.00;;
24873;SDS011;12945;42.648;23.370;2023-03-04T17:19:30;38.70;;;22.30;;
24873;SDS011;12945;42.648;23.370;2023-03-04T17:24:58;52.25;;;26.52;;
24873;SDS011;12945;42.648;23.370;2023-03-04T17:27:24;55.28;;;28.40;;
24873;SDS011;12945;42.648;23.370;2023-03-04T17:32:53;73.38;;;38.33;;
24873;SDS011;12945;42.648;23.370;2023-03-04T17:38:21;54.25;;;32.05;;
24873;SDS011;12945;42.648;23.370;2023-03-04T17:43:50;67.45;;;35.95;;
24873;SDS011;12945;42.648;23.370;2023-03-04T17:49:20;59.38;;;31.77;;
24873;SDS011;12945;42.648;23.370;2023-03-04T17:54:52;61.15;;;32.90;;
24873;SDS011;12945;42.648;23.370;2023-03-04T18:01:03;72.57;;;31.25;;
24873;SDS011;12945;42.648;23.370;2023-03-04T18:03:28;57.42;;;31.08;;
24873;SDS011;12945;42.648;23.370;2023-03-04T18:09:16;61.80;;;33.08;;
24873;SDS011;12945;42.648;23.370;2023-03-04T18:14:45;61.90;;;33.45;;
24873;SDS011;12945;42.648;23.370;2023-03-04T18:20:15;60.28;;;31.20;;
24873;SDS011;12945;42.648;23.370;2023-03-04T18:22:40;67.72;;;33.55;;
24873;SDS011;12945;42.648;23.370;2023-03-04T18:28:10;57.53;;;31.20;;
24873;SDS011;12945;42.648;23.370;2023-03-04T18:33:39;60.90;;;32.08;;
24873;SDS011;12945;42.648;23.370;2023-03-04T18:39:08;59.20;;;31.92;;
24873;SDS011;12945;42.648;23.370;2023-03-04T18:44:40;60.78;;;32.17;;
24873;SDS011;12945;42.648;23.370;2023-03-04T18:50:10;69.43;;;34.90;;
24873;SDS011;12945;42.648;23.370;2023-03-04T18:52:36;62.58;;;35.03;;
24873;SDS011;12945;42.648;23.370;2023-03-04T18:55:02;72.25;;;35.00;;
24873;SDS011;12945;42.648;23.370;2023-03-04T18:57:49;60.35;;;33.67;;